createdAt,value
2018-11-05T00:00:41.072Z,73.67
2018-11-05T00:03:11.636Z,76.23
2018-11-05T00:05:41.845Z,76.87
2018-11-05T00:08:12.249Z,77.50
2018-11-05T00:10:42.578Z,66.87
2018-11-05T00:13:13.147Z,86.23
2018-11-05T00:15:43.468Z,83.37
2018-11-05T00:18:13.803Z,90.23
2018-11-05T00:20:44.163Z,97.20
2018-11-05T00:23:14.618Z,95.20
2018-11-05T00:25:44.945Z,78.60
2018-11-05T00:28:15.361Z,111.70
2018-11-05T00:30:45.639Z,89.43
2018-11-05T00:33:15.922Z,97.63
2018-11-05T00:35:46.571Z,95.30
2018-11-05T00:38:17.407Z,94.77
2018-11-05T00:40:47.760Z,102.87
2018-11-05T00:43:18.220Z,94.63
2018-11-05T00:45:48.588Z,99.10
2018-11-05T00:48:18.630Z,103.77
2018-11-05T00:50:49.139Z,110.17
2018-11-05T00:53:19.551Z,94.43
2018-11-05T00:55:49.818Z,98.80
2018-11-05T00:58:20.011Z,96.67
2018-11-05T01:00:50.469Z,102.97
2018-11-05T01:03:20.716Z,103.47
2018-11-05T01:05:51.083Z,97.60
2018-11-05T01:08:21.541Z,80.30
2018-11-05T01:10:51.876Z,84.67
2018-11-05T01:13:22.153Z,87.57
2018-11-05T01:15:53.230Z,104.93
2018-11-05T01:18:23.516Z,96.43
2018-11-05T01:20:53.880Z,99.03
2018-11-05T01:23:24.269Z,102.93
2018-11-05T01:25:54.727Z,91.03
2018-11-05T01:28:25.072Z,84.00
2018-11-05T01:30:55.765Z,83.83
2018-11-05T01:33:26.081Z,85.60
2018-11-05T01:35:56.568Z,88.63
2018-11-05T01:38:26.851Z,79.53
2018-11-05T01:40:57.189Z,79.93
2018-11-05T01:43:27.592Z,73.90
2018-11-05T01:45:57.834Z,71.30
2018-11-05T01:48:28.116Z,78.93
2018-11-05T01:50:58.615Z,79.40
2018-11-05T01:53:28.896Z,83.87
2018-11-05T01:55:59.338Z,87.73
2018-11-05T01:58:29.837Z,75.23
2018-11-05T02:01:00.317Z,79.50
2018-11-05T02:03:30.544Z,68.63
2018-11-05T02:06:00.939Z,82.60
2018-11-05T02:08:31.456Z,82.60
2018-11-05T02:11:01.770Z,79.40
2018-11-05T02:13:32.237Z,76.60
2018-11-05T02:16:02.727Z,94.73
2018-11-05T02:18:33.176Z,82.53
2018-11-05T02:21:03.622Z,96.30
2018-11-05T02:23:33.892Z,74.37
2018-11-05T02:26:04.226Z,80.73
2018-11-05T02:28:34.757Z,87.43
2018-11-05T02:31:05.226Z,69.93
2018-11-05T02:33:35.497Z,82.70
2018-11-05T02:36:05.909Z,75.07
2018-11-05T02:38:36.364Z,87.67
2018-11-05T02:41:06.951Z,74.03
2018-11-05T02:43:37.356Z,74.60
2018-11-05T02:46:07.658Z,74.70
2018-11-05T02:48:37.996Z,73.77
2018-11-05T02:51:08.196Z,67.33
2018-11-05T02:53:38.488Z,70.73
2018-11-05T02:56:09.996Z,73.77
2018-11-05T02:58:40.257Z,67.43
2018-11-05T03:01:10.651Z,70.53
2018-11-05T03:03:41.032Z,73.07
2018-11-05T03:06:11.507Z,75.70
2018-11-05T03:08:41.862Z,71.83
2018-11-05T03:11:12.297Z,69.07
2018-11-05T03:13:42.689Z,76.27
2018-11-05T03:16:13.220Z,65.60
2018-11-05T03:18:43.572Z,70.33
2018-11-05T03:21:14.108Z,76.87
2018-11-05T03:23:44.580Z,65.43
2018-11-05T03:26:14.787Z,61.37
2018-11-05T03:28:44.968Z,78.70
2018-11-05T03:31:15.520Z,80.27
2018-11-05T03:33:45.966Z,60.17
2018-11-05T03:36:16.263Z,64.87
2018-11-05T03:38:46.942Z,61.30
2018-11-05T03:41:17.216Z,72.30
2018-11-05T03:43:47.676Z,68.23
2018-11-05T03:46:18.117Z,67.30
2018-11-05T03:48:48.527Z,67.63
2018-11-05T03:51:18.849Z,75.37
2018-11-05T03:53:49.341Z,65.07
2018-11-05T03:56:19.793Z,62.90
2018-11-05T03:58:50.272Z,74.73
2018-11-05T04:01:20.461Z,56.73
2018-11-05T04:03:50.763Z,62.43
2018-11-05T04:06:21.344Z,59.13
2018-11-05T04:08:51.500Z,65.53
2018-11-05T04:11:21.867Z,66.80
2018-11-05T04:13:52.387Z,54.80
2018-11-05T04:16:22.638Z,61.10
2018-11-05T04:18:53.156Z,51.40
2018-11-05T04:21:27.895Z,54.43
2018-11-05T04:23:58.101Z,60.90
2018-11-05T04:26:28.411Z,50.77
2018-11-05T04:28:58.781Z,57.23
2018-11-05T04:31:29.199Z,55.70
2018-11-05T04:33:59.410Z,49.87
2018-11-05T04:36:29.678Z,51.63
2018-11-05T04:39:00.063Z,54.60
2018-11-05T04:41:30.164Z,57.97
2018-11-05T04:44:00.476Z,56.57
2018-11-05T04:46:30.746Z,62.03
2018-11-05T04:49:01.241Z,57.13
2018-11-05T04:51:31.805Z,47.90
2018-11-05T04:54:02.183Z,53.70
2018-11-05T04:56:32.747Z,52.30
2018-11-05T04:59:03.074Z,61.13
2018-11-05T05:01:33.354Z,56.67
2018-11-05T05:04:03.805Z,49.73
2018-11-05T05:06:34.245Z,56.87
2018-11-05T05:09:04.646Z,60.23
2018-11-05T05:11:35.196Z,64.17
2018-11-05T05:14:06.116Z,62.60
2018-11-05T05:16:36.667Z,56.20
2018-11-05T05:19:07.040Z,65.20
2018-11-05T05:21:37.293Z,59.23
2018-11-05T05:24:07.791Z,55.73
2018-11-05T05:26:38.213Z,57.37
2018-11-05T05:29:08.817Z,65.60
2018-11-05T05:31:39.356Z,61.80
2018-11-05T05:34:09.693Z,61.13
2018-11-05T05:36:40.096Z,56.67
2018-11-05T05:39:11.065Z,57.23
2018-11-05T05:41:42.584Z,52.00
2018-11-05T05:44:12.858Z,50.60
2018-11-05T05:46:43.349Z,51.90
2018-11-05T05:49:13.838Z,51.10
2018-11-05T05:51:44.072Z,52.10
2018-11-05T05:54:14.437Z,51.93
2018-11-05T05:56:44.870Z,52.40
2018-11-05T05:59:15.131Z,55.27
2018-11-05T06:01:45.609Z,56.13
2018-11-05T06:04:16.035Z,55.90
2018-11-05T06:06:46.408Z,55.30
2018-11-05T06:09:16.642Z,53.30
2018-11-05T06:11:47.085Z,51.13
2018-11-05T06:14:17.517Z,50.63
2018-11-05T06:16:48.065Z,52.10
2018-11-05T06:19:18.687Z,52.87
2018-11-05T06:21:49.194Z,57.73
2018-11-05T06:24:19.431Z,50.53
2018-11-05T06:26:49.892Z,55.27
2018-11-05T06:29:20.583Z,56.10
2018-11-05T06:31:51.112Z,51.50
2018-11-05T06:34:21.574Z,53.80
2018-11-05T06:36:51.907Z,52.20
2018-11-05T06:39:22.638Z,53.10
2018-11-05T06:41:53.058Z,48.67
2018-11-05T06:44:23.913Z,51.60
2018-11-05T06:46:54.752Z,51.00
2018-11-05T06:49:25.490Z,54.23
2018-11-05T06:51:56.349Z,46.10
2018-11-05T06:54:27.152Z,45.10
2018-11-05T06:56:57.661Z,45.63
2018-11-05T06:59:28.326Z,51.87
2018-11-05T07:01:59.218Z,53.53
2018-11-05T07:04:30.005Z,41.83
2018-11-05T07:07:00.391Z,41.53
2018-11-05T07:09:31.117Z,43.93
2018-11-05T07:12:01.952Z,39.50
2018-11-05T07:14:32.416Z,36.97
2018-11-05T07:17:03.066Z,39.33
2018-11-05T07:19:33.786Z,55.40
2018-11-05T07:22:04.291Z,38.70
2018-11-05T07:24:34.607Z,43.23
2018-11-05T07:27:05.324Z,40.57
2018-11-05T07:29:35.520Z,43.13
2018-11-05T07:32:06.013Z,42.93
2018-11-05T07:34:36.400Z,43.70
2018-11-05T07:37:06.745Z,39.47
2018-11-05T07:39:37.248Z,38.93
2018-11-05T07:42:07.809Z,40.70
2018-11-05T07:44:37.897Z,42.43
2018-11-05T07:47:08.211Z,39.93
2018-11-05T07:49:38.748Z,33.27
2018-11-05T07:52:09.069Z,36.80
2018-11-05T07:54:39.404Z,35.10
2018-11-05T07:57:09.855Z,34.20
2018-11-05T07:59:40.178Z,32.00
2018-11-05T08:02:10.562Z,32.97
2018-11-05T08:04:41.053Z,33.47
2018-11-05T08:07:11.817Z,35.30
2018-11-05T08:09:42.059Z,35.57
2018-11-05T08:12:12.420Z,30.97
2018-11-05T08:14:42.832Z,39.33
2018-11-05T08:17:13.123Z,28.40
2018-11-05T08:19:43.510Z,31.30
2018-11-05T08:22:13.950Z,27.90
2018-11-05T08:24:44.550Z,28.60
2018-11-05T08:27:14.917Z,31.90
2018-11-05T08:29:45.280Z,29.13
2018-11-05T08:32:15.899Z,31.87
2018-11-05T08:34:46.130Z,27.30
2018-11-05T08:37:16.477Z,27.17
2018-11-05T08:39:46.966Z,29.23
2018-11-05T08:42:17.331Z,26.43
2018-11-05T08:44:47.934Z,31.83
2018-11-05T08:47:18.474Z,27.63
2018-11-05T08:49:48.674Z,26.33
2018-11-05T08:52:19.140Z,42.63
2018-11-05T08:54:49.455Z,24.90
2018-11-05T08:57:20.010Z,25.10
2018-11-05T08:59:50.160Z,28.27
2018-11-05T09:02:20.545Z,28.63
2018-11-05T09:04:51.078Z,30.37
2018-11-05T09:07:21.136Z,26.67
2018-11-05T09:09:51.759Z,25.90
2018-11-05T09:12:22.812Z,28.37
2018-11-05T09:14:53.151Z,22.03
2018-11-05T09:17:23.527Z,26.17
2018-11-05T09:19:54.030Z,24.50
2018-11-05T09:22:24.478Z,31.93
2018-11-05T09:24:54.898Z,30.50
2018-11-05T09:27:25.261Z,27.43
2018-11-05T09:29:55.632Z,26.30
2018-11-05T09:32:26.062Z,25.70
2018-11-05T09:34:57.060Z,25.63
2018-11-05T09:37:27.294Z,26.47
2018-11-05T09:39:57.751Z,24.60
2018-11-05T09:42:28.227Z,25.17
2018-11-05T09:44:58.573Z,26.40
2018-11-05T09:47:28.964Z,25.33
2018-11-05T09:49:59.326Z,25.80
2018-11-05T09:52:29.804Z,24.60
2018-11-05T09:55:00.087Z,26.10
2018-11-05T09:57:30.824Z,25.87
2018-11-05T10:00:01.252Z,25.30
2018-11-05T10:02:36.717Z,21.20
2018-11-05T10:05:07.594Z,26.80
2018-11-05T10:07:37.852Z,27.20
2018-11-05T10:10:09.941Z,22.60
2018-11-05T10:12:40.728Z,26.03
2018-11-05T10:15:12.147Z,19.67
2018-11-05T10:17:42.633Z,23.30
2018-11-05T10:20:16.514Z,21.30
2018-11-05T10:22:47.107Z,20.50
2018-11-05T10:25:17.546Z,20.47
2018-11-05T10:27:48.812Z,21.40
2018-11-05T10:30:21.495Z,22.70
2018-11-05T10:32:51.902Z,17.00
2018-11-05T10:35:26.376Z,20.00
2018-11-05T10:37:56.963Z,21.77
2018-11-05T10:40:27.364Z,20.40
2018-11-05T10:42:57.707Z,20.07
2018-11-05T10:45:28.202Z,18.27
2018-11-05T10:47:58.496Z,20.20
2018-11-05T10:50:28.866Z,20.10
2018-11-05T10:52:59.296Z,22.77
2018-11-05T10:55:29.612Z,18.40
2018-11-05T10:57:59.865Z,21.70
2018-11-05T11:00:35.121Z,19.60
2018-11-05T11:03:10.617Z,21.73
2018-11-05T11:05:41.003Z,22.77
2018-11-05T11:08:11.399Z,23.53
2018-11-05T11:10:41.686Z,21.50
2018-11-05T11:13:12.254Z,20.37
2018-11-05T11:15:42.320Z,19.77
2018-11-05T11:18:12.651Z,24.20
2018-11-05T11:20:43.046Z,21.13
2018-11-05T11:23:13.456Z,21.70
2018-11-05T11:25:43.692Z,21.40
2018-11-05T11:28:14.289Z,22.37
2018-11-05T11:30:44.589Z,24.93
2018-11-05T11:33:15.258Z,23.13
2018-11-05T11:35:45.411Z,19.07
2018-11-05T11:38:15.784Z,22.50
2018-11-05T11:40:46.290Z,21.50
2018-11-05T11:43:17.225Z,30.03
2018-11-05T11:45:47.564Z,25.27
2018-11-05T11:48:18.198Z,23.50
2018-11-05T11:50:48.623Z,24.90
2018-11-05T11:53:18.957Z,24.70
2018-11-05T11:55:49.385Z,25.73
2018-11-05T11:58:19.734Z,27.57
2018-11-05T12:00:50.347Z,27.93
2018-11-05T12:03:20.729Z,23.53
2018-11-05T12:05:51.079Z,27.13
2018-11-05T12:08:21.523Z,25.90
2018-11-05T12:10:52.000Z,24.90
2018-11-05T12:13:22.585Z,26.87
2018-11-05T12:15:52.985Z,32.20
2018-11-05T12:18:23.317Z,25.50
2018-11-05T12:20:53.875Z,29.37
2018-11-05T12:23:24.311Z,26.33
2018-11-05T12:25:55.101Z,29.30
2018-11-05T12:28:25.727Z,30.70
2018-11-05T12:30:56.182Z,32.47
2018-11-05T12:33:26.418Z,33.47
2018-11-05T12:35:56.910Z,37.00
2018-11-05T12:38:27.352Z,33.50
2018-11-05T12:40:57.768Z,35.57
2018-11-05T12:43:28.732Z,36.53
2018-11-05T12:45:59.174Z,36.53
2018-11-05T12:48:29.446Z,33.80
2018-11-05T12:50:59.666Z,36.27
2018-11-05T12:53:30.106Z,34.03
2018-11-05T12:56:00.466Z,34.30
2018-11-05T12:58:30.835Z,32.87
2018-11-05T13:01:01.432Z,29.67
2018-11-05T13:03:31.720Z,35.17
2018-11-05T13:06:02.147Z,35.87
2018-11-05T13:08:32.603Z,38.50
2018-11-05T13:11:02.994Z,37.40
2018-11-05T13:13:33.394Z,39.50
2018-11-05T13:16:03.769Z,35.07
2018-11-05T13:18:34.320Z,32.93
2018-11-05T13:21:04.748Z,39.23
2018-11-05T13:23:36.747Z,38.40
2018-11-05T13:26:07.393Z,41.53
2018-11-05T13:28:37.993Z,42.13
2018-11-05T13:31:08.257Z,37.87
2018-11-05T13:33:38.898Z,37.70
2018-11-05T13:36:10.049Z,44.13
2018-11-05T13:38:40.390Z,37.30
2018-11-05T13:41:10.915Z,45.13
2018-11-05T13:43:41.384Z,35.23
2018-11-05T13:46:12.162Z,34.17
2018-11-05T13:48:42.825Z,37.23
2018-11-05T13:51:12.602Z,38.00
2018-11-05T13:53:43.189Z,36.60
2018-11-05T13:56:13.767Z,36.77
2018-11-05T13:58:44.249Z,34.40
2018-11-05T14:01:14.534Z,36.67
2018-11-05T14:03:45.092Z,36.13
2018-11-05T14:06:16.190Z,62.27
2018-11-05T14:08:46.590Z,40.33
2018-11-05T14:11:17.020Z,46.63
2018-11-05T14:13:47.319Z,48.37
2018-11-05T14:16:17.801Z,43.73
2018-11-05T14:18:48.145Z,55.47
2018-11-05T14:21:18.726Z,50.43
2018-11-05T14:23:49.202Z,49.80
2018-11-05T14:26:19.737Z,55.90
2018-11-05T14:28:50.624Z,48.90
2018-11-05T14:31:20.466Z,45.07
2018-11-05T14:33:50.992Z,46.77
2018-11-05T14:36:21.446Z,46.60
2018-11-05T14:38:51.925Z,49.37
2018-11-05T14:41:22.504Z,46.83
2018-11-05T14:43:52.845Z,53.70
2018-11-05T14:46:23.108Z,45.87
2018-11-05T14:48:53.418Z,52.90
2018-11-05T14:51:23.979Z,49.67
2018-11-05T14:53:54.360Z,50.57
2018-11-05T14:56:24.963Z,53.37
2018-11-05T14:58:55.365Z,54.67
2018-11-05T15:01:25.767Z,55.37
2018-11-05T15:03:56.288Z,51.20
2018-11-05T15:06:26.871Z,56.17
2018-11-05T15:08:57.079Z,59.37
2018-11-05T15:11:27.494Z,56.43
2018-11-05T15:13:57.961Z,54.53
2018-11-05T15:16:28.144Z,51.57
2018-11-05T15:18:58.779Z,49.47
2018-11-05T15:21:28.871Z,55.57
2018-11-05T15:23:59.273Z,55.30
2018-11-05T15:26:29.567Z,54.77
2018-11-05T15:29:01.508Z,52.00
2018-11-05T15:31:31.958Z,52.67
2018-11-05T15:34:02.460Z,55.47
2018-11-05T15:36:32.933Z,57.30
2018-11-05T15:39:03.388Z,55.93
2018-11-05T15:41:33.823Z,57.03
2018-11-05T15:44:04.430Z,58.53
2018-11-05T15:46:34.803Z,58.13
2018-11-05T15:49:05.224Z,60.87
2018-11-05T15:51:35.821Z,56.43
2018-11-05T15:54:06.173Z,59.40
2018-11-05T15:56:36.533Z,56.80
2018-11-05T15:59:07.086Z,52.87
2018-11-05T16:01:37.419Z,58.53
2018-11-05T16:04:08.094Z,56.10
2018-11-05T16:06:38.551Z,66.83
2018-11-05T16:09:10.195Z,65.77
2018-11-05T16:11:40.638Z,59.90
2018-11-05T16:14:11.149Z,56.17
2018-11-05T16:16:41.472Z,63.70
2018-11-05T16:19:12.039Z,61.97
2018-11-05T16:21:42.296Z,58.47
2018-11-05T16:24:12.814Z,55.17
2018-11-05T16:26:43.427Z,61.53
2018-11-05T16:29:13.722Z,64.00
2018-11-05T16:31:44.293Z,63.47
2018-11-05T16:34:14.713Z,63.03
2018-11-05T16:36:45.227Z,61.17
2018-11-05T16:39:15.653Z,60.93
2018-11-05T16:41:46.261Z,59.20
2018-11-05T16:44:16.748Z,66.17
2018-11-05T16:46:46.953Z,64.87
2018-11-05T16:49:17.239Z,69.80
2018-11-05T16:51:47.656Z,64.03
2018-11-05T16:54:18.007Z,68.03
2018-11-05T16:56:48.370Z,74.43
2018-11-05T16:59:18.868Z,62.30
2018-11-05T17:01:49.618Z,60.07
2018-11-05T17:04:19.923Z,71.27
2018-11-05T17:06:50.116Z,68.77
2018-11-05T17:09:20.534Z,59.47
2018-11-05T17:11:50.975Z,55.87
2018-11-05T17:14:21.548Z,61.23
2018-11-05T17:16:52.048Z,57.60
2018-11-05T17:19:22.464Z,63.00
2018-11-05T17:21:52.780Z,69.60
2018-11-05T17:24:23.251Z,66.63
2018-11-05T17:26:53.648Z,59.20
2018-11-05T17:29:24.100Z,68.13
2018-11-05T17:31:54.371Z,63.63
2018-11-05T17:34:24.746Z,64.37
2018-11-05T17:36:55.177Z,62.10
2018-11-05T17:39:25.591Z,75.17
2018-11-05T17:41:56.009Z,67.43
2018-11-05T17:44:26.420Z,61.27
2018-11-05T17:46:56.964Z,67.07
2018-11-05T17:49:27.526Z,69.90
2018-11-05T17:51:57.923Z,75.07
2018-11-05T17:54:28.395Z,74.40
2018-11-05T17:56:58.502Z,70.67
2018-11-05T17:59:28.367Z,75.73
2018-11-05T18:01:58.336Z,77.67
2018-11-05T18:04:28.628Z,70.40
2018-11-05T18:06:58.783Z,73.77
2018-11-05T18:09:29.322Z,82.30
2018-11-05T18:11:59.481Z,76.00
2018-11-05T18:14:29.720Z,72.87
2018-11-05T18:17:00.025Z,76.40
2018-11-05T18:19:30.253Z,80.30
2018-11-05T18:22:00.375Z,77.00
2018-11-05T18:24:31.090Z,74.57
2018-11-05T18:27:01.445Z,66.40
2018-11-05T18:29:31.823Z,74.60
2018-11-05T18:32:02.268Z,74.07
2018-11-05T18:34:32.745Z,79.37
2018-11-05T18:37:03.080Z,69.67
2018-11-05T18:39:34.151Z,78.60
2018-11-05T18:42:05.117Z,79.37
2018-11-05T18:44:35.886Z,75.93
2018-11-05T18:47:06.193Z,80.93
2018-11-05T18:49:36.932Z,67.90
2018-11-05T18:52:08.331Z,77.73
2018-11-05T18:54:39.288Z,79.17
2018-11-05T18:57:09.818Z,74.87
2018-11-05T18:59:40.163Z,95.23
2018-11-05T19:02:12.995Z,73.30
2018-11-05T19:04:43.364Z,82.87
2018-11-05T19:07:13.820Z,69.20
2018-11-05T19:09:44.215Z,79.67
2018-11-05T19:12:14.537Z,85.30
2018-11-05T19:14:44.925Z,77.47
2018-11-05T19:17:15.459Z,72.50
2018-11-05T19:19:45.883Z,74.17
2018-11-05T19:22:16.248Z,80.93
2018-11-05T19:24:46.747Z,74.53
2018-11-05T19:27:17.302Z,72.13
2018-11-05T19:29:47.808Z,73.83
2018-11-05T19:32:18.224Z,78.27
2018-11-05T19:34:48.181Z,80.37
2018-11-05T19:37:18.144Z,80.53
2018-11-05T19:39:48.083Z,78.80
2018-11-05T19:42:19.979Z,86.47
2018-11-05T19:44:50.671Z,77.83
2018-11-05T19:47:23.650Z,74.70
2018-11-05T19:49:54.491Z,74.00
2018-11-05T19:52:24.992Z,66.50
2018-11-05T19:54:55.527Z,72.57
2018-11-05T19:57:25.971Z,74.90
2018-11-05T19:59:56.488Z,69.33
2018-11-05T20:02:30.384Z,72.50
2018-11-05T20:05:00.595Z,66.57
2018-11-05T20:07:30.870Z,71.33
2018-11-05T20:10:01.238Z,76.50
2018-11-05T20:12:31.584Z,79.60
2018-11-05T20:15:01.878Z,77.60
2018-11-05T20:17:32.553Z,84.53
2018-11-05T20:20:04.266Z,80.77
2018-11-05T20:22:34.648Z,69.33
2018-11-05T20:25:05.636Z,75.60
2018-11-05T20:27:36.577Z,75.90
2018-11-05T20:30:09.527Z,82.17
2018-11-05T20:32:40.483Z,76.83
2018-11-05T20:35:10.983Z,82.80
2018-11-05T20:37:41.279Z,69.33
2018-11-05T20:40:14.300Z,75.47
2018-11-05T20:42:45.920Z,82.57
2018-11-05T20:45:16.895Z,90.13
2018-11-05T20:47:47.407Z,73.77
2018-11-05T20:50:18.362Z,77.63
2018-11-05T20:52:48.816Z,74.00
2018-11-05T20:55:19.220Z,96.43
2018-11-05T20:57:49.492Z,98.23
2018-11-05T21:00:20.889Z,79.83
2018-11-05T21:02:51.335Z,81.30
2018-11-05T21:05:21.820Z,79.37
2018-11-05T21:07:52.256Z,83.77
2018-11-05T21:10:22.671Z,81.17
2018-11-05T21:12:53.193Z,81.83
2018-11-05T21:15:23.855Z,76.97
2018-11-05T21:17:54.607Z,78.90
2018-11-05T21:20:25.159Z,78.80
2018-11-05T21:22:55.882Z,74.00
2018-11-05T21:25:26.120Z,71.50
2018-11-05T21:27:56.713Z,65.77
2018-11-05T21:30:27.218Z,69.70
2018-11-05T21:32:58.215Z,63.70
2018-11-05T21:35:28.695Z,70.67
2018-11-05T21:37:59.015Z,65.93
2018-11-05T21:40:29.348Z,74.07
2018-11-05T21:42:59.555Z,68.30
2018-11-05T21:45:29.960Z,72.97
2018-11-05T21:48:00.423Z,67.37
2018-11-05T21:50:30.813Z,78.67
2018-11-05T21:53:01.247Z,81.80
2018-11-05T21:55:31.589Z,84.63
2018-11-05T21:58:02.043Z,75.33
2018-11-05T22:00:32.511Z,80.47
2018-11-05T22:03:04.275Z,82.47
2018-11-05T22:05:34.610Z,83.60
2018-11-05T22:08:05.156Z,70.60
2018-11-05T22:10:35.378Z,77.87
2018-11-05T22:13:06.094Z,76.17
2018-11-05T22:15:41.653Z,78.33
2018-11-05T22:18:12.173Z,84.33
2018-11-05T22:20:42.563Z,90.20
2018-11-05T22:23:12.927Z,79.37
2018-11-05T22:25:43.367Z,87.87
2018-11-05T22:28:13.791Z,84.70
2018-11-05T22:30:44.183Z,90.90
2018-11-05T22:33:14.643Z,80.70
2018-11-05T22:35:44.946Z,95.27
2018-11-05T22:38:15.324Z,83.53
2018-11-05T22:40:45.761Z,74.37
2018-11-05T22:43:16.153Z,102.90
2018-11-05T22:45:46.667Z,82.07
2018-11-05T22:48:17.115Z,96.80
2018-11-05T22:50:47.443Z,83.70
2018-11-05T22:53:17.876Z,81.93
2018-11-05T22:55:48.314Z,96.23
2018-11-05T22:58:18.714Z,90.57
2018-11-05T23:00:53.967Z,94.83
2018-11-05T23:03:29.470Z,81.77
2018-11-05T23:06:00.145Z,79.80
2018-11-05T23:08:30.359Z,79.90
2018-11-05T23:11:00.979Z,82.87
2018-11-05T23:13:31.455Z,85.10
2018-11-05T23:16:01.930Z,85.13
2018-11-05T23:18:32.369Z,77.43
2018-11-05T23:21:02.727Z,82.70
2018-11-05T23:23:33.247Z,75.63
2018-11-05T23:26:03.578Z,97.90
2018-11-05T23:28:34.047Z,87.63
2018-11-05T23:31:04.542Z,85.67
2018-11-05T23:33:35.178Z,79.83
2018-11-05T23:36:05.427Z,74.30
2018-11-05T23:38:35.891Z,82.87
2018-11-05T23:41:06.364Z,77.87
2018-11-05T23:43:36.704Z,86.53
2018-11-05T23:46:07.249Z,70.07
2018-11-05T23:48:37.738Z,73.67
2018-11-05T23:51:08.090Z,94.07
2018-11-05T23:53:38.437Z,80.97
2018-11-05T23:56:08.842Z,89.73
2018-11-05T23:58:39.186Z,91.43
